createdAt,value
2019-03-09T05:08:01.376Z,0.1
2019-03-09T05:10:01.096Z,0.3
2019-03-09T05:11:01.066Z,0.4
2019-03-09T05:12:01.064Z,0.6
2019-03-09T05:13:01.280Z,0.8
2019-03-09T05:14:01.089Z,1.0
2019-03-09T05:15:01.094Z,1.2
2019-03-09T05:16:01.091Z,1.5
2019-03-09T05:17:02.243Z,1.7
2019-03-09T05:18:01.309Z,2.0
2019-03-09T05:19:01.093Z,2.3
2019-03-09T05:20:01.100Z,2.9
2019-03-09T05:21:01.091Z,3.7
2019-03-09T05:22:01.061Z,4.9
2019-03-09T05:23:01.278Z,6.1
2019-03-09T05:24:01.095Z,7.8
2019-03-09T05:25:01.100Z,9.9
2019-03-09T05:26:01.097Z,12.6
2019-03-09T05:27:01.064Z,15.9
2019-03-09T05:28:01.271Z,20.5
2019-03-09T05:29:01.099Z,25.6
2019-03-09T05:30:01.070Z,31.3
2019-03-09T05:31:01.094Z,38.1
2019-03-09T05:32:01.099Z,46.2
2019-03-09T05:33:01.288Z,54.7
2019-03-09T05:34:01.094Z,64.1
2019-03-09T05:35:01.065Z,74.1
2019-03-09T05:36:01.071Z,83.9
2019-03-09T05:37:01.106Z,92.6
2019-03-09T05:38:01.829Z,99.4
2019-03-09T05:39:01.101Z,107.7
2019-03-09T05:40:01.074Z,122.4
2019-03-09T05:41:01.074Z,132.2
2019-03-09T05:42:01.071Z,141.5
2019-03-09T05:44:01.311Z,161.4
2019-03-09T05:45:01.090Z,174.7
2019-03-09T05:46:01.088Z,186.8
2019-03-09T05:47:01.054Z,198.2
2019-03-09T05:48:01.108Z,219.6
2019-03-09T05:49:01.239Z,247.9
2019-03-09T05:50:01.062Z,295.1
2019-03-09T05:51:01.089Z,366.5
2019-03-09T05:52:01.103Z,452.3
2019-03-09T05:53:01.098Z,554.7
2019-03-09T05:54:01.266Z,673.5
2019-03-09T05:55:01.131Z,805.7
2019-03-09T05:56:02.070Z,957.8
2019-03-09T05:57:01.096Z,1129.0
2019-03-09T05:58:01.101Z,1315.5
2019-03-09T05:59:01.281Z,1522.1
2019-03-09T06:00:01.069Z,1763.7
2019-03-09T06:01:01.059Z,2029.5
2019-03-09T06:02:01.067Z,2325.1
2019-03-09T06:03:01.101Z,2624.4
2019-03-09T06:04:01.260Z,2917.9
2019-03-09T06:05:01.073Z,3183.1
2019-03-09T06:06:01.101Z,3413.3
2019-03-09T06:07:01.098Z,3635.6
2019-03-09T06:08:01.089Z,3855.7
2019-03-09T06:09:01.246Z,4078.7
2019-03-09T06:10:01.067Z,4354.7
2019-03-09T06:11:01.728Z,4620.3
2019-03-09T06:12:01.093Z,4922.7
2019-03-09T06:13:01.100Z,5234.3
2019-03-09T06:14:01.211Z,5563.1
2019-03-09T06:15:01.098Z,5913.7
2019-03-09T06:16:01.101Z,6308.9
2019-03-09T06:17:01.066Z,6708.7
2019-03-09T06:18:01.063Z,7045.6
2019-03-09T06:19:01.247Z,7349.3
2019-03-09T06:20:01.069Z,7717.8
2019-03-09T06:21:01.092Z,8225.0
2019-03-09T06:22:01.093Z,8610.4
2019-03-09T06:23:01.100Z,8894.1
2019-03-09T06:24:01.255Z,9115.9
2019-03-09T06:25:01.068Z,9385.7
2019-03-09T06:26:01.167Z,9719.7
2019-03-09T06:27:01.061Z,9964.9
2019-03-09T06:28:01.092Z,10092.3
2019-03-09T06:29:01.206Z,10202.3
2019-03-09T06:30:01.097Z,10368.4
2019-03-09T06:31:01.062Z,10721.7
2019-03-09T06:32:01.060Z,11398.2
2019-03-09T06:33:02.098Z,11778.3
2019-03-09T06:34:01.245Z,11800.5
2019-03-09T06:35:01.100Z,11712.9
2019-03-09T06:36:01.066Z,11593.8
2019-03-09T06:37:01.111Z,11573.0
2019-03-09T06:38:01.066Z,11908.1
2019-03-09T06:39:02.165Z,12313.5
2019-03-09T06:40:01.064Z,12433.0
2019-03-09T06:41:03.033Z,12513.4
2019-03-09T06:42:01.116Z,12733.3
2019-03-09T06:43:01.096Z,13068.3
2019-03-09T06:44:01.315Z,13417.3
2019-03-09T06:45:06.065Z,13515.7
2019-03-09T06:46:01.064Z,13519.6
2019-03-09T06:47:01.071Z,13336.3
2019-03-09T06:48:01.065Z,13589.3
2019-03-09T06:49:01.248Z,14513.6
2019-03-09T06:50:01.128Z,15318.8
2019-03-09T06:51:01.107Z,15899.5
2019-03-09T06:52:01.102Z,16144.0
2019-03-09T06:53:02.884Z,16203.1
2019-03-09T06:54:01.225Z,16245.7
2019-03-09T06:55:01.125Z,16781.7
2019-03-09T06:56:01.099Z,17249.3
2019-03-09T06:57:01.144Z,17405.1
2019-03-09T06:58:01.105Z,17700.1
2019-03-09T06:59:01.222Z,17984.7
2019-03-09T07:00:06.159Z,18511.5
2019-03-09T07:01:01.066Z,19087.2
2019-03-09T07:02:01.071Z,19689.3
2019-03-09T07:03:01.106Z,20420.6
2019-03-09T07:04:01.220Z,21119.2
2019-03-09T07:05:01.099Z,22130.3
2019-03-09T07:06:01.108Z,23524.0
2019-03-09T07:07:01.072Z,24843.8
2019-03-09T07:08:02.170Z,25786.3
2019-03-09T07:10:01.245Z,26926.7
2019-03-09T07:11:01.090Z,28040.5
2019-03-09T07:12:01.078Z,29231.5
2019-03-09T07:13:01.093Z,30827.1
2019-03-09T07:14:01.097Z,32904.7
2019-03-09T07:15:01.215Z,35878.5
2019-03-09T07:16:01.060Z,37021.0
2019-03-09T07:17:06.063Z,37049.4
2019-03-09T07:18:01.090Z,36858.8
2019-03-09T07:19:03.527Z,36783.4
2019-03-09T07:20:11.806Z,36369.1
2019-03-09T07:21:01.097Z,35775.8
2019-03-09T07:22:01.057Z,35177.8
2019-03-09T07:23:01.097Z,35267.9
2019-03-09T07:24:01.099Z,36335.7
2019-03-09T07:25:02.448Z,37142.3
2019-03-09T07:26:01.099Z,37573.5
2019-03-09T07:27:01.098Z,38203.9
2019-03-09T07:28:01.094Z,38920.9
2019-03-09T07:29:01.132Z,39164.1
2019-03-09T07:30:01.207Z,37942.1
2019-03-09T07:31:01.100Z,38450.9
2019-03-09T07:32:01.129Z,40112.1
2019-03-09T07:33:01.067Z,42862.7
2019-03-09T07:34:01.067Z,45276.6
2019-03-09T07:35:01.310Z,47278.3
2019-03-09T07:36:01.059Z,48702.5
2019-03-09T07:37:01.130Z,49508.7
2019-03-09T07:38:01.095Z,51539.9
2019-03-09T07:39:01.097Z,52888.3
2019-03-09T07:40:01.248Z,54290.5
2019-03-09T07:41:01.067Z,55771.2
2019-03-09T07:42:01.091Z,54852.7
2019-03-09T07:43:01.116Z,53128.0
2019-03-09T07:44:01.094Z,51097.5
2019-03-09T07:45:01.239Z,49233.9
2019-03-09T07:46:01.093Z,47448.6
2019-03-09T07:47:01.093Z,45307.2
2019-03-09T07:48:06.078Z,41769.1
2019-03-09T07:49:01.064Z,37938.6
2019-03-09T07:50:01.248Z,34538.6
2019-03-09T07:51:01.104Z,31899.5
2019-03-09T07:52:01.065Z,29746.1
2019-03-09T07:53:01.125Z,26596.0
2019-03-09T07:54:01.099Z,25310.8
2019-03-09T07:55:01.208Z,24752.7
2019-03-09T07:57:01.163Z,26902.2
2019-03-09T07:58:01.226Z,29576.1
2019-03-09T07:59:01.099Z,32386.4
2019-03-09T08:00:01.243Z,35563.7
2019-03-09T08:01:01.067Z,38664.3
2019-03-09T08:02:01.100Z,41052.3
2019-03-09T08:03:06.093Z,42346.3
2019-03-09T08:04:01.112Z,43251.0
2019-03-09T08:05:01.230Z,43680.5
2019-03-09T08:06:01.071Z,43757.7
2019-03-09T08:08:01.084Z,43601.7
2019-03-09T08:09:01.469Z,43043.0
2019-03-09T08:10:01.195Z,40735.7
2019-03-09T08:11:01.087Z,37889.1
2019-03-09T08:12:01.058Z,34284.1
2019-03-09T08:13:01.089Z,30616.1
2019-03-09T08:14:01.086Z,26854.7
2019-03-09T08:15:01.247Z,23216.7
2019-03-09T08:16:01.057Z,19724.5
2019-03-09T08:17:01.094Z,16441.7
2019-03-09T08:18:01.101Z,14159.7
2019-03-09T08:19:01.086Z,13223.0
2019-03-09T08:20:01.214Z,12623.6
2019-03-09T08:21:01.064Z,12419.1
2019-03-09T08:22:01.101Z,12350.7
2019-03-09T08:23:01.097Z,12240.2
2019-03-09T08:24:01.115Z,12050.3
2019-03-09T08:25:01.254Z,11822.6
2019-03-09T08:26:01.112Z,11479.9
2019-03-09T08:27:01.154Z,11498.9
2019-03-09T08:28:01.094Z,11864.9
2019-03-09T08:29:01.128Z,12632.5
2019-03-09T08:30:02.252Z,13565.4
2019-03-09T08:31:01.093Z,14505.9
2019-03-09T08:32:01.112Z,15742.4
2019-03-09T08:33:01.117Z,17196.3
2019-03-09T08:34:01.058Z,18472.2
2019-03-09T08:35:01.280Z,19703.0
2019-03-09T08:36:01.091Z,20924.9
2019-03-09T08:37:01.095Z,22510.0
2019-03-09T08:38:01.095Z,24709.3
2019-03-09T08:39:01.124Z,28608.0
2019-03-09T08:40:01.306Z,32428.2
2019-03-09T08:41:01.097Z,36175.5
2019-03-09T08:42:01.099Z,39761.5
2019-03-09T08:43:01.292Z,43063.6
2019-03-09T08:44:06.130Z,46057.3
2019-03-09T08:45:01.213Z,48762.5
2019-03-09T08:46:01.102Z,51314.3
2019-03-09T08:47:01.102Z,53360.5
2019-03-09T08:48:01.095Z,55009.6
2019-03-09T08:49:01.090Z,56914.5
2019-03-09T08:50:01.241Z,59208.9
2019-03-09T08:51:01.100Z,61664.3
2019-03-09T08:52:01.124Z,63255.1
2019-03-09T08:53:01.581Z,64961.9
2019-03-09T09:00:01.072Z,64961.9
2019-03-09T09:07:01.076Z,65535.0
2019-03-09T09:15:01.126Z,65535.0
2019-03-09T09:30:01.096Z,65535.0
2019-03-09T09:43:01.100Z,64286.6
2019-03-09T09:44:01.237Z,63952.5
2019-03-09T09:45:01.102Z,63952.5
2019-03-09T09:58:01.123Z,65200.9
2019-03-09T09:59:01.256Z,65535.0
2019-03-09T10:00:01.106Z,65535.0
2019-03-09T10:15:01.310Z,65535.0
2019-03-09T10:30:01.336Z,65535.0
2019-03-09T10:45:01.218Z,65535.0
2019-03-09T11:00:01.425Z,65535.0
2019-03-09T11:15:01.318Z,65535.0
2019-03-09T11:30:01.260Z,65535.0
2019-03-09T11:42:01.384Z,64734.2
2019-03-09T11:43:01.090Z,64204.3
2019-03-09T11:45:01.116Z,64204.3
2019-03-09T11:57:01.062Z,65005.1
2019-03-09T11:58:01.062Z,65535.0
2019-03-09T12:00:01.217Z,65535.0
2019-03-09T12:15:01.247Z,65535.0
2019-03-09T12:30:03.732Z,65535.0
2019-03-09T12:45:01.277Z,65535.0
2019-03-09T13:00:01.366Z,65443.2
2019-03-09T13:02:01.097Z,65067.1
2019-03-09T13:03:01.058Z,64610.1
2019-03-09T13:04:06.101Z,63944.7
2019-03-09T13:15:01.369Z,64036.5
2019-03-09T13:17:01.121Z,64412.7
2019-03-09T13:18:01.092Z,64869.7
2019-03-09T13:19:01.156Z,65535.0
2019-03-09T13:30:01.208Z,65535.0
2019-03-09T13:40:06.101Z,64229.9
2019-03-09T13:41:01.559Z,63040.0
2019-03-09T13:42:01.094Z,62183.1
2019-03-09T13:43:01.300Z,61255.1
2019-03-09T13:44:01.090Z,61045.9
2019-03-09T13:45:01.096Z,61045.9
2019-03-09T13:48:01.838Z,60532.8
2019-03-09T13:49:01.089Z,58713.8
2019-03-09T13:50:01.128Z,56416.9
2019-03-09T13:51:01.092Z,54467.5
2019-03-09T13:52:01.095Z,53599.9
2019-03-09T13:53:01.265Z,53551.4
2019-03-09T13:55:06.213Z,54856.5
2019-03-09T13:56:01.099Z,56046.4
2019-03-09T13:57:01.101Z,56903.3
2019-03-09T13:58:01.254Z,57831.3
2019-03-09T13:59:01.063Z,58040.5
2019-03-09T14:00:01.097Z,58040.5
2019-03-09T14:03:03.063Z,58553.6
2019-03-09T14:04:01.104Z,60372.6
2019-03-09T14:05:06.079Z,62669.5
2019-03-09T14:06:01.103Z,64618.9
2019-03-09T14:07:01.098Z,65486.5
2019-03-09T14:08:01.253Z,65535.0
2019-03-09T14:09:01.146Z,65416.5
2019-03-09T14:11:01.085Z,64933.1
2019-03-09T14:12:01.080Z,64744.1
2019-03-09T14:13:01.224Z,64646.1
2019-03-09T14:14:02.004Z,64194.8
2019-03-09T14:15:01.089Z,63982.6
2019-03-09T14:16:01.083Z,63903.8
2019-03-09T14:21:01.276Z,63629.5
2019-03-09T14:22:01.093Z,63484.7
2019-03-09T14:23:01.093Z,63278.7
2019-03-09T14:24:01.122Z,62831.7
2019-03-09T14:25:01.098Z,62440.7
2019-03-09T14:26:01.230Z,62913.1
2019-03-09T14:27:01.089Z,62882.1
2019-03-09T14:28:01.098Z,62536.2
2019-03-09T14:29:01.090Z,62408.1
2019-03-09T14:30:01.822Z,61840.6
2019-03-09T14:31:01.212Z,60761.1
2019-03-09T14:32:01.058Z,59343.5
2019-03-09T14:33:01.057Z,57632.3
2019-03-09T14:34:01.119Z,55538.9
2019-03-09T14:35:01.057Z,53404.8
2019-03-09T14:36:01.256Z,51196.1
2019-03-09T14:37:01.090Z,48343.5
2019-03-09T14:38:01.067Z,45127.2
2019-03-09T14:39:01.081Z,42173.8
2019-03-09T14:40:01.056Z,39568.1
2019-03-09T14:41:01.313Z,36420.3
2019-03-09T14:42:01.056Z,33652.0
2019-03-09T14:43:01.059Z,31395.2
2019-03-09T14:44:06.061Z,29548.5
2019-03-09T14:45:01.067Z,27981.2
2019-03-09T14:46:01.236Z,26907.8
2019-03-09T14:47:01.059Z,26215.0
2019-03-09T14:48:01.093Z,25864.8
2019-03-09T14:49:06.097Z,25928.8
2019-03-09T14:50:01.093Z,25972.5
2019-03-09T14:51:01.239Z,26316.8
2019-03-09T14:52:01.075Z,27087.7
2019-03-09T14:53:01.120Z,28238.2
2019-03-09T14:54:01.124Z,29345.7
2019-03-09T14:55:01.094Z,30160.1
2019-03-09T14:56:01.218Z,30953.9
2019-03-09T14:57:01.129Z,31487.5
2019-03-09T14:58:01.093Z,31608.4
2019-03-09T14:59:01.134Z,31288.7
2019-03-09T15:00:01.105Z,30741.9
2019-03-09T15:01:01.208Z,29935.2
2019-03-09T15:02:01.096Z,28904.3
2019-03-09T15:03:01.061Z,27805.3
2019-03-09T15:04:01.125Z,26718.6
2019-03-09T15:05:01.067Z,25775.9
2019-03-09T15:06:01.252Z,24937.4
2019-03-09T15:07:01.065Z,24188.5
2019-03-09T15:08:01.073Z,23430.7
2019-03-09T15:09:01.103Z,22596.2
2019-03-09T15:10:01.067Z,21618.4
2019-03-09T15:11:02.916Z,20586.6
2019-03-09T15:12:01.102Z,19555.9
2019-03-09T15:13:01.105Z,18669.3
2019-03-09T15:14:01.140Z,17951.7
2019-03-09T15:15:01.069Z,17370.4
2019-03-09T15:17:01.048Z,16966.7
2019-03-09T15:18:01.081Z,16643.7
2019-03-09T15:19:01.097Z,16338.6
2019-03-09T15:20:01.093Z,15993.7
2019-03-09T15:21:01.231Z,15501.2
2019-03-09T15:22:01.088Z,14865.1
2019-03-09T15:23:01.050Z,14186.5
2019-03-09T15:24:01.082Z,13604.1
2019-03-09T15:25:01.085Z,13159.2
2019-03-09T15:26:01.239Z,12914.7
2019-03-09T15:27:01.051Z,12814.4
2019-03-09T15:28:01.082Z,12774.4
2019-03-09T15:29:01.088Z,12621.2
2019-03-09T15:30:01.142Z,12423.6
2019-03-09T15:31:01.300Z,12195.7
2019-03-09T15:32:01.061Z,11845.3
2019-03-09T15:33:01.114Z,11454.9
2019-03-09T15:34:01.088Z,11068.9
2019-03-09T15:35:06.091Z,10702.4
2019-03-09T15:36:01.256Z,10444.9
2019-03-09T15:37:01.092Z,10304.3
2019-03-09T15:38:02.041Z,10201.9
2019-03-09T15:39:01.087Z,10009.7
2019-03-09T15:40:01.091Z,9725.7
2019-03-09T15:41:01.200Z,9336.5
2019-03-09T15:42:01.060Z,8890.8
2019-03-09T15:43:01.088Z,8487.8
2019-03-09T15:44:01.063Z,8186.1
2019-03-09T15:45:01.058Z,7924.3
2019-03-09T15:46:01.233Z,7699.1
2019-03-09T15:47:01.056Z,7548.7
2019-03-09T15:48:01.094Z,7406.3
2019-03-09T15:49:01.095Z,7204.2
2019-03-09T15:50:01.087Z,6929.7
2019-03-09T15:51:01.197Z,6590.2
2019-03-09T15:52:01.095Z,6219.1
2019-03-09T15:53:01.087Z,5845.6
2019-03-09T15:54:01.085Z,5522.3
2019-03-09T15:55:01.818Z,5255.8
2019-03-09T15:56:01.225Z,5062.9
2019-03-09T15:57:01.092Z,4910.3
2019-03-09T15:58:01.095Z,4748.5
2019-03-09T15:59:01.090Z,4555.3
2019-03-09T16:00:01.120Z,4346.4
2019-03-09T16:01:01.228Z,4145.9
2019-03-09T16:02:01.150Z,3945.4
2019-03-09T16:03:01.109Z,3795.5
2019-03-09T16:04:01.104Z,3692.5
2019-03-09T16:05:06.059Z,3622.5
2019-03-09T16:06:01.244Z,3581.6
2019-03-09T16:07:01.096Z,3550.0
2019-03-09T16:08:01.070Z,3523.9
2019-03-09T16:09:01.093Z,3478.5
2019-03-09T16:10:01.092Z,3431.8
2019-03-09T16:11:01.236Z,3358.7
2019-03-09T16:12:01.093Z,3262.9
2019-03-09T16:13:01.078Z,3139.7
2019-03-09T16:14:01.090Z,3030.7
2019-03-09T16:15:01.090Z,2940.5
2019-03-09T16:16:01.248Z,2852.2
2019-03-09T16:17:01.063Z,2769.6
2019-03-09T16:18:01.066Z,2679.1
2019-03-09T16:19:01.077Z,2598.5
2019-03-09T16:20:01.141Z,2513.5
2019-03-09T16:21:01.206Z,2412.7
2019-03-09T16:22:01.070Z,2299.4
2019-03-09T16:23:01.101Z,2187.7
2019-03-09T16:24:06.100Z,2096.1
2019-03-09T16:25:01.099Z,2002.7
2019-03-09T16:26:01.240Z,1921.2
2019-03-09T16:27:01.100Z,1855.9
2019-03-09T16:28:01.068Z,1814.3
2019-03-09T16:29:01.098Z,1780.7
2019-03-09T16:30:01.073Z,1758.3
2019-03-09T16:31:01.208Z,1738.5
2019-03-09T16:32:01.184Z,1714.4
2019-03-09T16:33:01.071Z,1699.0
2019-03-09T16:34:01.098Z,1687.6
2019-03-09T16:35:01.104Z,1689.3
2019-03-09T16:36:01.329Z,1696.4
2019-03-09T16:37:01.096Z,1712.7
2019-03-09T16:38:01.104Z,1722.9
2019-03-09T16:39:01.099Z,1727.1
2019-03-09T16:40:01.105Z,1724.1
2019-03-09T16:41:02.067Z,1712.9
2019-03-09T16:42:01.095Z,1683.4
2019-03-09T16:43:01.064Z,1635.9
2019-03-09T16:45:01.109Z,1602.7
2019-03-09T16:46:01.207Z,1564.3
2019-03-09T16:47:01.048Z,1527.5
2019-03-09T16:48:01.081Z,1514.0
2019-03-09T16:49:01.049Z,1510.1
2019-03-09T16:50:01.074Z,1513.1
2019-03-09T16:51:01.208Z,1536.2
2019-03-09T16:52:01.051Z,1574.1
2019-03-09T16:53:01.057Z,1620.0
2019-03-09T16:54:01.084Z,1682.6
2019-03-09T16:55:01.075Z,1760.1
2019-03-09T16:56:01.210Z,1865.4
2019-03-09T16:57:01.061Z,2005.7
2019-03-09T16:58:01.053Z,2221.6
2019-03-09T16:59:01.058Z,2476.2
2019-03-09T17:00:06.094Z,2715.5
2019-03-09T17:01:01.205Z,3002.1
2019-03-09T17:02:01.083Z,3310.4
2019-03-09T17:03:01.088Z,3614.3
2019-03-09T17:04:01.058Z,3878.4
2019-03-09T17:05:01.088Z,4106.2
2019-03-09T17:06:01.246Z,4291.3
2019-03-09T17:07:01.075Z,4428.8
2019-03-09T17:08:01.149Z,4529.8
2019-03-09T17:09:01.097Z,4599.4
2019-03-09T17:10:01.540Z,4637.3
2019-03-09T17:11:01.246Z,4623.1
2019-03-09T17:12:01.085Z,4558.9
2019-03-09T17:13:01.103Z,4410.9
2019-03-09T17:14:06.106Z,4224.7
2019-03-09T17:15:01.075Z,4031.7
2019-03-09T17:16:01.243Z,3770.6
2019-03-09T17:17:01.089Z,3466.1
2019-03-09T17:18:01.056Z,3143.0
2019-03-09T17:19:01.098Z,2840.9
2019-03-09T17:20:01.091Z,2552.6
2019-03-09T17:21:01.200Z,2284.3
2019-03-09T17:22:01.090Z,2043.8
2019-03-09T17:23:01.104Z,1822.3
2019-03-09T17:24:01.093Z,1614.8
2019-03-09T17:25:01.122Z,1422.7
2019-03-09T17:26:01.246Z,1257.0
2019-03-09T17:27:01.102Z,1108.2
2019-03-09T17:28:01.100Z,980.0
2019-03-09T17:29:01.100Z,864.9
2019-03-09T17:30:01.093Z,757.8
2019-03-09T17:31:01.210Z,661.1
2019-03-09T17:32:01.090Z,575.1
2019-03-09T17:33:01.092Z,500.8
2019-03-09T17:34:01.091Z,436.9
2019-03-09T17:35:01.164Z,383.1
2019-03-09T17:36:01.299Z,337.3
2019-03-09T17:37:01.062Z,297.5
2019-03-09T17:38:01.094Z,262.5
2019-03-09T17:39:01.093Z,231.4
2019-03-09T17:40:01.248Z,203.5
2019-03-09T17:41:01.248Z,178.6
2019-03-09T17:42:01.095Z,156.4
2019-03-09T17:43:01.102Z,136.5
2019-03-09T17:44:01.107Z,118.6
2019-03-09T17:45:01.103Z,102.7
2019-03-09T17:46:01.240Z,88.9
2019-03-09T17:47:01.099Z,76.8
2019-03-09T17:48:01.104Z,66.1
2019-03-09T17:49:01.104Z,56.5
2019-03-09T17:50:01.107Z,48.3
2019-03-09T17:51:01.261Z,40.9
2019-03-09T17:52:01.102Z,34.5
2019-03-09T17:54:01.150Z,28.9
2019-03-09T17:55:06.051Z,24.0
2019-03-09T17:56:01.204Z,19.8
2019-03-09T17:57:01.095Z,16.2
2019-03-09T17:58:01.054Z,13.2
2019-03-09T17:59:01.092Z,10.7
2019-03-09T18:00:06.065Z,8.6
2019-03-09T18:01:01.305Z,6.9
2019-03-09T18:02:01.054Z,5.5
2019-03-09T18:03:01.057Z,4.4
2019-03-09T18:04:01.094Z,3.5
2019-03-09T18:05:06.117Z,2.7
2019-03-09T18:06:01.252Z,2.0
2019-03-09T18:07:01.094Z,1.4
2019-03-09T18:08:01.076Z,1.0
2019-03-09T18:10:06.060Z,0.8
2019-03-09T18:11:01.245Z,0.7
2019-03-09T18:12:02.314Z,0.6
2019-03-09T18:13:01.084Z,0.5
2019-03-09T18:15:01.193Z,0.4
2019-03-09T18:16:01.239Z,0.3
2019-03-09T18:18:01.094Z,0.2
2019-03-09T18:19:01.087Z,0.1
